Glenville, New York
Current Conditions -  °F | °C
As of 9:15 PM on Sunday 25 Jan 2015 (Local Time) from KNY0 Reporting Station
Clear Clear  
Wind Chill: -4°   Ceiling: Unl
Heat Index:   Visibility: 10mi
Dew Point: -3°   Wind: 7mph
Humidity: 60%   Direction: 230°SW
Pressure: 29.98"   Gusts: NA
Location:  42.9294°N, 74.0527°W
Report Text: KNY0 260215Z AUTO 23006KT 10SM CLR M13/M20 A2998 RMK AO2 T11351197
Loading
Personal Weather Stations






























Interactive Weather Map New forecast layout! Learn more

10-Day Weather Forecast

Advertisements
Track Severe Weather on mobile